SVBMSVMI

Guest
Details From SVBM - BARQUISIMETO INTL
To SVMI - Caracas Simon Bolivar Intl
Flight Number -
Tags generated
Created
Modified
Stats Distance 144 nm / 267 km
Max Altitude 15,700 ft / 4,785 m
Waypoints 3
Social Downloads 6
Likes 0
Share VATSIM

Download

Looking for another format? Having issues loading an existing format? Contact us
Advertisement - Login to hide

Notes

Basic altitude profile: - Ascent Rate: 2500ft/min - Ascent Speed: 250kts - Cruise Altitude: 35000ft - Cruise Speed: 420kts - Descent Rate: 1500ft/min - Descent Speed: 250kts Options: - Use NATs: yes - Use PACOTS: yes - Use low airways: yes - Use high airways: yes

Route

SVBM KERON SVMI

ID Type Via Altitude Latitude Longitude Leg Dist Tot Dist Heading (true) Name
O SVBM APT - 0 ft / 0 m 10.04235˚ -69.35886˚ - 0 nm - BARQUISIMETO INTL
KERON FIX - 15,700 ft / 4,785 m 10.25981˚ -68.59847˚ 46 nm 46 nm 74° / 74° -
O SVMI APT - 0 ft / 0 m 10.60312˚ -66.99059˚ 97 nm 143 nm 78° / 78° Caracas Simon Bolivar Intl

Altitude Profile

Advertisement - Login to hide

SVBM

Details ICAO SVBM (BRM)
Name BARQUISIMETO INTL
Region Venezuela
Timezone America/Caracas (UTC-4.0)
Stats Elevation 2,042 ft / 622 m (AMSL)
Location 10.042348° -69.358860°
Runways 1
Magnetic Variation 10.917° W

METAR

SVBM 170149Z 07008KT 9999 BKN016 23/20 Q1016

Decode

TAF

Not found

Departure Runways

ID Width Length Bearing (true) Bearing (mag) Surface Threshold Offset Overrun Length
09 147 ft / 45 m 9,428 ft / 2,874 m 80.91° 91.83° Asphalt 0 ft / 0 m 0 ft / 0 m
27 147 ft / 45 m 9,428 ft / 2,874 m 260.91° 271.83° Asphalt 1,541 ft / 470 m 315 ft / 96 m

SVMI

Details ICAO SVMI (CCS)
Name Caracas Simon Bolivar Intl
Region Venezuela
Timezone America/Caracas (UTC-4.0)
Stats Elevation 235 ft / 72 m (AMSL)
Location 10.603119° -66.990585°
Runways 2
Magnetic Variation 12.289° W

METAR

SVMI 170200Z 00000KT 9999 FEW016 27/23 Q1012

Decode

TAF

Not found

Destination Runways

ID Width Length Bearing (true) Bearing (mag) Surface Threshold Offset Overrun Length
09 145 ft / 44 m 9,825 ft / 2,995 m 75.92° 88.21° Asphalt 0 ft / 0 m 0 ft / 0 m
10 148 ft / 45 m 11,472 ft / 3,497 m 88.14° 100.43° Asphalt 0 ft / 0 m 200 ft / 61 m
27 145 ft / 44 m 9,825 ft / 2,995 m 255.92° 268.21° Asphalt 0 ft / 0 m 0 ft / 0 m
28 148 ft / 45 m 11,472 ft / 3,497 m 268.15° 280.44° Asphalt 0 ft / 0 m 200 ft / 61 m

Approach Navaids

Runway Type Ident Frequency Range Bearing (true) Bearing (mag) Slope Elevation
10 Localiser IMIQ 110.10 MHz 18 nm / 33 km 87.90° 100.19° - 235 ft / 72 m (AMSL)
10 Glidescope IMIQ 110.10 MHz 10 nm / 19 km 88.14° 100.43° 3.00° 235 ft / 72 m (AMSL)
10 DME IMIQ 110.10 MHz 18 nm / 33 km - - - 235 ft / 72 m (AMSL)

Popular Alternatives